Pingyao, China
Current Conditions -  °F | °C
As of 12:00 AM on Sunday 26 Oct 2014 (Local Time) from ZBYN Reporting Station
Haze Haze  
Wind Chill: 54°   Ceiling: Unl
Heat Index: 54°   Visibility: 1.8mi
Dew Point: 39°   Wind: 4mph
Humidity: 58%   Direction: 80°E
Pressure: 30.03"   Gusts: NA
Location:  37.21°N, 112.17°E
Report Text: ZBYN 251600Z 08002MPS 050V110 3000 HZ NSC 12/04 Q1017 NOSIG
Loading
Personal Weather Stations






























Interactive Weather Map
Tropical Storm Tracking
New forecast layout! Learn more

10-Day Weather Forecast

Advertisements
Track Severe Weather on mobile